Terminal Aerodrome Forecast
Issued by NWS Sterling, VA

Home | Current Version | Previous Version | Text Only | Print | Product List | Glossary On
Versions: 1 2 3 4 5 6 7 8 9 10 11 12 13 14 15 16 17 18
000
FTUS41 KLWX 040538
TAFMRB
TAF
KMRB 040538Z 0406/0506 17006KT P6SM OVC050
     FM040900 23005KT 5SM -SHRA BR OVC025
     FM041400 VRB04KT 3SM -RA BR OVC010
     FM042100 34004KT 2SM -RA BR OVC008
     FM050200 32006KT 1SM -RASN BR OVC008=

USA.gov is the U.S. government's official web portal to all federal, state and local government web resources and services.